createdAt,value
2022-12-01T00:01:27.070Z,11.90
2022-12-01T00:03:54.749Z,9.88
2022-12-01T00:06:22.096Z,9.40
2022-12-01T00:09:10.914Z,9.02
2022-12-01T00:11:40.653Z,9.50
2022-12-01T00:14:08.001Z,8.57
2022-12-01T00:16:35.718Z,8.70
2022-12-01T00:19:03.380Z,8.68
2022-12-01T00:21:30.696Z,8.75
2022-12-01T00:23:58.445Z,8.15
2022-12-01T00:26:26.980Z,8.20
2022-12-01T00:28:56.657Z,9.02
2022-12-01T00:31:24.117Z,7.87
2022-12-01T00:33:51.855Z,8.57
2022-12-01T00:36:19.417Z,8.48
2022-12-01T00:38:46.965Z,8.13
2022-12-01T00:41:14.589Z,7.80
2022-12-01T00:43:42.089Z,7.60
2022-12-01T00:46:09.548Z,7.87
2022-12-01T00:48:37.213Z,8.13
2022-12-01T00:51:04.599Z,6.78
2022-12-01T00:53:32.018Z,8.23
2022-12-01T00:55:59.722Z,8.43
2022-12-01T00:58:27.633Z,9.50
2022-12-01T01:01:00.280Z,8.15
2022-12-01T01:03:28.585Z,8.88
2022-12-01T01:05:55.975Z,8.70
2022-12-01T01:08:23.378Z,9.02
2022-12-01T01:10:50.986Z,9.73
2022-12-01T01:13:18.338Z,8.07
2022-12-01T01:15:45.654Z,8.35
2022-12-01T01:18:13.234Z,8.45
2022-12-01T01:20:40.537Z,9.30
2022-12-01T01:23:07.862Z,9.48
2022-12-01T01:25:35.458Z,8.60
2022-12-01T01:28:02.772Z,8.85
2022-12-01T01:30:30.118Z,9.48
2022-12-01T01:32:57.733Z,9.20
2022-12-01T01:35:25.279Z,8.95
2022-12-01T01:37:52.658Z,9.65
2022-12-01T01:40:20.232Z,10.50
2022-12-01T01:42:47.549Z,8.93
2022-12-01T01:45:29.873Z,9.48
2022-12-01T01:47:59.194Z,10.57
2022-12-01T01:50:28.318Z,9.77
2022-12-01T01:53:02.069Z,9.85
2022-12-01T01:55:30.636Z,8.98
2022-12-01T01:57:58.032Z,9.88
2022-12-01T02:00:25.536Z,9.48
2022-12-01T02:02:53.573Z,8.88
2022-12-01T02:05:24.348Z,9.65
2022-12-01T02:07:53.935Z,9.60
2022-12-01T02:10:34.368Z,9.63
2022-12-01T02:13:33.542Z,9.93
2022-12-01T02:16:08.984Z,11.12
2022-12-01T02:18:48.424Z,11.32
2022-12-01T02:21:25.008Z,10.45
2022-12-01T02:24:29.572Z,10.50
2022-12-01T02:27:02.386Z,10.02
2022-12-01T02:29:47.109Z,10.20
2022-12-01T02:32:17.667Z,9.50
2022-12-01T02:34:56.700Z,10.65
2022-12-01T02:37:34.315Z,11.07
2022-12-01T02:40:10.236Z,9.68
2022-12-01T02:42:54.487Z,10.77
2022-12-01T02:45:31.638Z,12.27
2022-12-01T02:48:02.095Z,11.77
2022-12-01T02:50:31.579Z,11.68
2022-12-01T02:53:00.024Z,12.52
2022-12-01T02:55:27.337Z,12.45
2022-12-01T02:57:54.783Z,12.90
2022-12-01T03:00:22.411Z,12.55
2022-12-01T03:03:07.976Z,13.50
2022-12-01T03:06:02.151Z,12.30
2022-12-01T03:08:45.925Z,11.93
2022-12-01T03:11:27.199Z,12.37
2022-12-01T03:14:16.610Z,12.35
2022-12-01T03:16:50.992Z,12.05
2022-12-01T03:19:27.637Z,12.65
2022-12-01T03:22:01.921Z,13.05
2022-12-01T03:24:31.718Z,11.68
2022-12-01T03:27:00.528Z,11.27
2022-12-01T03:29:39.880Z,11.65
2022-12-01T03:32:16.045Z,11.50
2022-12-01T03:35:04.773Z,10.70
2022-12-01T03:37:43.486Z,11.82
2022-12-01T03:40:17.746Z,10.55
2022-12-01T03:42:54.548Z,9.82
2022-12-01T03:45:28.389Z,9.52
2022-12-01T03:47:56.268Z,9.20
2022-12-01T03:50:32.062Z,9.57
2022-12-01T03:53:07.643Z,10.48
2022-12-01T03:55:39.257Z,10.15
2022-12-01T03:58:13.672Z,9.30
2022-12-01T04:00:41.279Z,9.43
2022-12-01T04:03:17.070Z,10.00
2022-12-01T04:05:44.451Z,9.45
2022-12-01T04:08:12.097Z,10.18
2022-12-01T04:10:39.567Z,10.20
2022-12-01T04:13:11.996Z,9.20
2022-12-01T04:15:39.637Z,8.60
2022-12-01T04:18:06.998Z,10.00
2022-12-01T04:20:34.306Z,9.50
2022-12-01T04:23:03.412Z,9.40
2022-12-01T04:25:30.734Z,8.95
2022-12-01T04:27:58.062Z,9.52
2022-12-01T04:30:25.629Z,10.25
2022-12-01T04:32:53.196Z,9.30
2022-12-01T04:35:20.571Z,8.90
2022-12-01T04:37:48.151Z,8.85
2022-12-01T04:40:15.510Z,9.63
2022-12-01T04:42:42.836Z,8.75
2022-12-01T04:45:10.584Z,8.30
2022-12-01T04:47:37.875Z,8.40
2022-12-01T04:50:05.760Z,8.98
2022-12-01T04:52:37.234Z,8.70
2022-12-01T04:55:04.906Z,8.48
2022-12-01T04:57:32.499Z,8.88
2022-12-01T04:59:59.818Z,8.82
2022-12-01T05:02:27.171Z,9.10
2022-12-01T05:04:54.834Z,9.10
2022-12-01T05:07:22.211Z,8.38
2022-12-01T05:09:49.847Z,9.15
2022-12-01T05:12:17.564Z,8.65
2022-12-01T05:14:45.898Z,7.55
2022-12-01T05:17:13.202Z,8.15
2022-12-01T05:19:59.180Z,8.95
2022-12-01T05:22:42.825Z,9.57
2022-12-01T05:25:14.095Z,9.32
2022-12-01T05:27:41.403Z,8.20
2022-12-01T05:30:09.342Z,8.48
2022-12-01T05:32:36.918Z,8.85
2022-12-01T05:35:04.804Z,9.20
2022-12-01T05:37:34.597Z,8.93
2022-12-01T05:40:02.588Z,9.63
2022-12-01T05:42:29.918Z,10.32
2022-12-01T05:44:57.232Z,9.70
2022-12-01T05:47:24.818Z,10.00
2022-12-01T05:49:52.183Z,10.05
2022-12-01T05:52:19.528Z,11.05
2022-12-01T05:54:47.096Z,10.80
2022-12-01T05:57:14.454Z,10.27
2022-12-01T05:59:41.803Z,11.05
2022-12-01T06:02:09.516Z,12.55
2022-12-01T06:04:37.129Z,13.35
2022-12-01T06:07:04.465Z,12.23
2022-12-01T06:09:31.788Z,11.57
2022-12-01T06:11:59.359Z,11.50
2022-12-01T06:14:26.723Z,11.68
2022-12-01T06:16:54.058Z,11.60
2022-12-01T06:19:21.675Z,11.20
2022-12-01T06:21:48.981Z,12.02
2022-12-01T06:24:16.575Z,12.27
2022-12-01T06:26:44.419Z,13.10
2022-12-01T06:29:11.748Z,12.98
2022-12-01T06:31:39.104Z,14.90
2022-12-01T06:34:06.890Z,13.75
2022-12-01T06:36:34.206Z,13.95
2022-12-01T06:39:01.581Z,14.65
2022-12-01T06:41:29.180Z,14.48
2022-12-01T06:43:56.841Z,13.50
2022-12-01T06:46:24.164Z,12.80
2022-12-01T06:48:51.866Z,11.93
2022-12-01T06:51:19.167Z,13.25
2022-12-01T06:53:46.576Z,13.20
2022-12-01T06:56:14.160Z,14.38
2022-12-01T06:58:41.790Z,16.10
2022-12-01T07:01:11.536Z,16.08
2022-12-01T07:03:39.499Z,15.55
2022-12-01T07:06:07.051Z,16.67
2022-12-01T07:08:34.473Z,17.20
2022-12-01T07:11:05.370Z,16.08
2022-12-01T07:13:33.971Z,15.52
2022-12-01T07:16:03.122Z,16.70
2022-12-01T07:18:31.244Z,18.30
2022-12-01T07:21:00.185Z,17.17
2022-12-01T07:23:27.841Z,17.12
2022-12-01T07:26:06.042Z,16.75
2022-12-01T07:28:34.321Z,16.02
2022-12-01T07:31:02.823Z,15.80
2022-12-01T07:33:30.758Z,16.40
2022-12-01T07:35:59.063Z,15.52
2022-12-01T07:38:29.968Z,17.97
2022-12-01T07:41:10.072Z,20.17
2022-12-01T07:43:39.359Z,20.35
2022-12-01T07:46:18.699Z,15.25
2022-12-01T07:48:49.488Z,16.87
2022-12-01T07:51:18.364Z,19.42
2022-12-01T07:53:47.171Z,15.32
2022-12-01T07:56:14.542Z,14.25
2022-12-01T07:58:42.558Z,12.65
2022-12-01T08:01:13.044Z,14.60
2022-12-01T08:03:41.288Z,13.25
2022-12-01T08:06:09.583Z,12.48
2022-12-01T08:08:39.126Z,12.85
2022-12-01T08:11:33.002Z,13.80
2022-12-01T08:14:00.325Z,11.55
2022-12-01T08:16:28.019Z,18.50
2022-12-01T08:18:55.729Z,13.75
2022-12-01T08:21:24.143Z,10.90
2022-12-01T08:23:57.319Z,10.52
2022-12-01T08:26:25.671Z,11.30
2022-12-01T08:28:53.222Z,11.80
2022-12-01T08:31:24.843Z,14.10
2022-12-01T08:33:52.463Z,10.93
2022-12-01T08:36:20.857Z,10.90
2022-12-01T08:38:50.605Z,10.55
2022-12-01T08:41:18.499Z,11.27
2022-12-01T08:44:01.693Z,12.63
2022-12-01T08:46:33.429Z,13.02
2022-12-01T08:49:02.626Z,13.35
2022-12-01T08:51:30.565Z,12.65
2022-12-01T08:53:58.607Z,12.00
2022-12-01T08:56:35.887Z,12.18
2022-12-01T08:59:03.943Z,12.10
2022-12-01T09:01:33.045Z,11.38
2022-12-01T09:04:10.613Z,10.82
2022-12-01T09:06:40.586Z,12.90
2022-12-01T09:09:09.939Z,11.82
2022-12-01T09:11:37.781Z,11.05
2022-12-01T09:14:05.108Z,10.27
2022-12-01T09:16:32.734Z,11.60
2022-12-01T09:19:00.572Z,12.32
2022-12-01T09:21:30.799Z,10.27
2022-12-01T09:23:59.037Z,11.45
2022-12-01T09:26:28.535Z,17.33
2022-12-01T09:29:02.388Z,9.77
2022-12-01T09:31:30.082Z,9.60
2022-12-01T09:34:03.941Z,11.40
2022-12-01T09:36:32.747Z,9.60
2022-12-01T09:39:00.379Z,11.85
2022-12-01T09:41:45.390Z,9.75
2022-12-01T09:44:20.812Z,10.38
2022-12-01T09:47:00.399Z,9.65
2022-12-01T09:49:45.413Z,9.10
2022-12-01T09:52:16.140Z,9.45
2022-12-01T09:54:49.783Z,8.65
2022-12-01T09:57:27.199Z,8.80
2022-12-01T09:59:54.803Z,8.93
2022-12-01T10:02:52.966Z,9.38
2022-12-01T10:05:22.790Z,9.57
2022-12-01T10:08:06.164Z,9.00
2022-12-01T10:10:37.241Z,8.65
2022-12-01T10:13:15.895Z,8.85
2022-12-01T10:15:48.047Z,9.65
2022-12-01T10:18:28.680Z,9.48
2022-12-01T10:21:34.015Z,8.90
2022-12-01T10:24:29.710Z,9.20
2022-12-01T10:27:12.375Z,8.27
2022-12-01T10:29:56.709Z,8.73
2022-12-01T10:32:30.717Z,10.10
2022-12-01T10:34:58.475Z,8.60
2022-12-01T10:37:28.551Z,9.60
2022-12-01T10:39:56.643Z,8.82
2022-12-01T10:42:43.910Z,9.50
2022-12-01T10:45:26.738Z,8.75
2022-12-01T10:48:15.720Z,8.88
2022-12-01T10:50:54.521Z,9.05
2022-12-01T10:53:32.892Z,10.00
2022-12-01T10:56:05.442Z,9.75
2022-12-01T10:58:34.565Z,10.52
2022-12-01T11:01:05.657Z,11.50
2022-12-01T11:03:36.672Z,9.13
2022-12-01T11:06:05.974Z,9.23
2022-12-01T11:08:36.207Z,10.00
2022-12-01T11:11:03.888Z,9.93
2022-12-01T11:13:35.799Z,9.35
2022-12-01T11:16:06.111Z,11.02
2022-12-01T11:18:36.826Z,9.32
2022-12-01T11:21:07.750Z,9.75
2022-12-01T11:23:37.487Z,9.23
2022-12-01T11:26:21.059Z,9.88
2022-12-01T11:28:54.825Z,9.75
2022-12-01T11:31:27.118Z,8.85
2022-12-01T11:33:56.251Z,12.75
2022-12-01T11:36:42.095Z,10.70
2022-12-01T11:39:29.358Z,10.73
2022-12-01T11:41:59.670Z,11.70
2022-12-01T11:47:23.698Z,9.38
2022-12-01T11:49:58.737Z,10.23
2022-12-01T11:52:36.681Z,9.75
2022-12-01T11:55:13.644Z,10.35
2022-12-01T11:57:43.573Z,10.20
2022-12-01T12:00:14.796Z,10.32
2022-12-01T12:03:09.775Z,12.90
2022-12-01T12:05:40.293Z,13.20
2022-12-01T12:08:22.948Z,13.00
2022-12-01T12:11:39.677Z,10.88
2022-12-01T12:14:27.430Z,11.55
2022-12-01T12:17:22.231Z,11.10
2022-12-01T12:20:08.954Z,11.65
2022-12-01T12:22:56.085Z,10.02
2022-12-01T12:25:36.910Z,10.35
2022-12-01T12:28:24.966Z,10.52
2022-12-01T12:31:22.027Z,11.10
2022-12-01T12:34:23.690Z,9.45
2022-12-01T12:37:09.642Z,10.43
2022-12-01T12:39:42.840Z,9.38
2022-12-01T12:42:24.194Z,9.98
2022-12-01T12:45:06.723Z,8.93
2022-12-01T12:47:49.558Z,9.02
2022-12-01T12:50:35.695Z,8.90
2022-12-01T12:53:10.562Z,9.30
2022-12-01T12:55:59.678Z,8.20
2022-12-01T12:58:33.701Z,9.73
2022-12-01T13:01:13.818Z,9.73
2022-12-01T13:03:49.699Z,9.00
2022-12-01T13:06:25.945Z,9.82
2022-12-01T13:09:08.223Z,9.45
2022-12-01T13:11:40.223Z,9.10
2022-12-01T13:14:16.332Z,9.38
2022-12-01T13:16:46.869Z,8.95
2022-12-01T13:19:35.988Z,8.82
2022-12-01T13:22:04.559Z,9.32
2022-12-01T13:24:32.335Z,9.48
2022-12-01T13:27:14.458Z,10.32
2022-12-01T13:29:49.592Z,13.65
2022-12-01T13:32:31.944Z,16.50
2022-12-01T13:35:00.770Z,11.75
2022-12-01T13:37:31.682Z,11.50
2022-12-01T13:40:31.020Z,14.68
2022-12-01T13:43:10.763Z,9.55
2022-12-01T13:45:40.311Z,9.18
2022-12-01T13:48:27.802Z,9.15
2022-12-01T13:51:00.695Z,10.68
2022-12-01T13:53:28.212Z,10.13
2022-12-01T13:56:17.631Z,10.30
2022-12-01T13:58:47.270Z,10.60
2022-12-01T14:01:20.996Z,10.68
2022-12-01T14:03:56.949Z,10.18
2022-12-01T14:06:31.775Z,10.48
2022-12-01T14:11:32.728Z,10.52
2022-12-01T14:14:09.293Z,9.85
2022-12-01T14:16:47.427Z,9.98
2022-12-01T14:19:34.324Z,9.18
2022-12-01T14:22:02.451Z,9.90
2022-12-01T14:24:37.039Z,10.20
2022-12-01T14:27:05.947Z,10.55
2022-12-01T14:29:36.088Z,11.05
2022-12-01T14:32:06.308Z,10.55
2022-12-01T14:34:34.995Z,9.55
2022-12-01T14:37:12.039Z,9.93
2022-12-01T14:39:50.558Z,10.82
2022-12-01T14:42:56.313Z,10.40
2022-12-01T14:47:59.891Z,9.75
2022-12-01T14:50:37.785Z,12.18
2022-12-01T14:53:22.349Z,19.50
2022-12-01T14:55:57.900Z,16.20
2022-12-01T14:58:32.115Z,13.13
2022-12-01T15:01:11.748Z,12.43
2022-12-01T15:03:45.868Z,11.23
2022-12-01T15:06:18.357Z,10.52
2022-12-01T15:09:04.101Z,10.70
2022-12-01T15:11:35.930Z,9.70
2022-12-01T15:14:03.490Z,14.73
2022-12-01T15:16:32.266Z,23.98
2022-12-01T15:18:59.902Z,20.37
2022-12-01T15:21:31.497Z,21.80
2022-12-01T15:24:06.870Z,24.15
2022-12-01T15:26:36.991Z,31.15
2022-12-01T15:29:16.153Z,32.17
2022-12-01T15:31:54.796Z,30.15
2022-12-01T15:34:35.531Z,30.52
2022-12-01T15:37:04.767Z,23.52
2022-12-01T15:39:39.542Z,27.33
2022-12-01T15:42:07.538Z,22.08
2022-12-01T15:44:36.450Z,21.08
2022-12-01T15:47:41.210Z,24.95
2022-12-01T15:50:29.618Z,26.27
2022-12-01T15:52:58.220Z,26.00
2022-12-01T15:55:29.132Z,25.30
2022-12-01T15:57:58.418Z,27.83
2022-12-01T16:00:27.041Z,26.60
2022-12-01T16:02:56.489Z,24.52
2022-12-01T16:05:29.942Z,25.48
2022-12-01T16:08:14.045Z,28.60
2022-12-01T16:10:41.576Z,31.70
2022-12-01T16:13:51.104Z,29.42
2022-12-01T16:16:21.702Z,21.48
2022-12-01T16:18:54.600Z,17.12
2022-12-01T16:21:22.954Z,15.90
2022-12-01T16:23:59.324Z,16.37
2022-12-01T16:26:26.883Z,16.67
2022-12-01T16:28:55.213Z,16.20
2022-12-01T16:31:22.860Z,15.70
2022-12-01T16:34:00.365Z,14.80
2022-12-01T16:36:28.368Z,14.73
2022-12-01T16:38:55.825Z,13.57
2022-12-01T16:41:37.712Z,15.20
2022-12-01T16:44:27.522Z,22.05
2022-12-01T16:46:54.044Z,18.17
2022-12-01T16:49:22.371Z,19.55
2022-12-01T16:51:56.123Z,19.90
2022-12-01T16:54:24.779Z,22.83
2022-12-01T16:56:52.364Z,23.58
2022-12-01T16:59:20.636Z,31.87
2022-12-01T17:01:48.384Z,32.85
2022-12-01T17:04:15.712Z,45.85
2022-12-01T17:06:43.051Z,51.88
2022-12-01T17:09:10.677Z,50.65
2022-12-01T17:11:38.751Z,33.42
2022-12-01T17:14:08.351Z,32.80
2022-12-01T17:16:36.082Z,46.58
2022-12-01T17:19:04.154Z,42.30
2022-12-01T17:21:31.475Z,38.10
2022-12-01T17:23:59.463Z,34.45
2022-12-01T17:26:27.027Z,27.70
2022-12-01T17:28:55.224Z,23.20
2022-12-01T17:31:23.329Z,23.65
2022-12-01T17:33:51.918Z,21.58
2022-12-01T17:36:19.391Z,20.83
2022-12-01T17:38:48.453Z,19.95
2022-12-01T17:41:18.535Z,26.15
2022-12-01T17:43:46.224Z,29.37
2022-12-01T17:46:13.932Z,26.85
2022-12-01T17:48:46.257Z,47.03
2022-12-01T17:51:14.803Z,48.67
2022-12-01T17:53:42.178Z,45.00
2022-12-01T17:56:14.045Z,39.97
2022-12-01T17:58:42.389Z,40.03
2022-12-01T18:01:18.305Z,39.67
2022-12-01T18:03:46.646Z,43.92
2022-12-01T18:06:14.623Z,35.58
2022-12-01T18:08:42.648Z,37.05
2022-12-01T18:11:14.308Z,31.52
2022-12-01T18:13:44.351Z,42.00
2022-12-01T18:16:15.329Z,47.30
2022-12-01T18:18:43.147Z,45.55
2022-12-01T18:21:13.124Z,51.88
2022-12-01T18:23:41.080Z,60.50
2022-12-01T18:26:15.367Z,57.80
2022-12-01T18:28:44.338Z,57.20
2022-12-01T18:31:14.317Z,27.08
2022-12-01T18:33:44.051Z,23.48
2022-12-01T18:36:15.959Z,20.85
2022-12-01T18:38:46.053Z,23.27
2022-12-01T18:41:14.906Z,21.92
2022-12-01T18:43:42.947Z,23.23
2022-12-01T18:46:12.085Z,21.55
2022-12-01T18:48:48.875Z,23.98
2022-12-01T18:51:16.687Z,24.20
2022-12-01T18:53:46.039Z,27.92
2022-12-01T18:56:15.324Z,33.55
2022-12-01T18:58:46.022Z,37.75
2022-12-01T19:01:19.774Z,37.78
2022-12-01T19:03:47.897Z,36.45
2022-12-01T19:06:16.019Z,28.70
2022-12-01T19:08:46.266Z,28.35
2022-12-01T19:11:13.970Z,25.67
2022-12-01T19:13:42.450Z,21.45
2022-12-01T19:16:15.862Z,20.37
2022-12-01T19:18:46.310Z,21.02
2022-12-01T19:21:16.594Z,21.02
2022-12-01T19:23:44.827Z,21.55
2022-12-01T19:26:15.522Z,22.37
2022-12-01T19:28:45.966Z,24.50
2022-12-01T19:31:16.700Z,23.15
2022-12-01T19:33:45.653Z,25.17
2022-12-01T19:36:16.937Z,24.10
2022-12-01T19:38:45.614Z,21.90
2022-12-01T19:41:14.321Z,21.10
2022-12-01T19:43:44.989Z,18.90
2022-12-01T19:46:16.206Z,20.12
2022-12-01T19:48:45.164Z,20.23
2022-12-01T19:51:21.240Z,19.58
2022-12-01T19:53:49.212Z,19.80
2022-12-01T19:56:17.306Z,18.55
2022-12-01T19:58:45.219Z,18.45
2022-12-01T20:01:22.148Z,19.12
2022-12-01T20:03:51.487Z,18.52
2022-12-01T20:06:31.836Z,17.95
2022-12-01T20:09:02.266Z,22.83
2022-12-01T20:11:33.090Z,32.47
2022-12-01T20:14:02.581Z,25.83
2022-12-01T20:16:33.376Z,29.02
2022-12-01T20:19:02.657Z,33.38
2022-12-01T20:21:37.585Z,33.10
2022-12-01T20:24:07.627Z,36.25
2022-12-01T20:26:41.627Z,39.97
2022-12-01T20:29:18.856Z,41.15
2022-12-01T20:31:46.559Z,36.90
2022-12-01T20:34:20.715Z,37.97
2022-12-01T20:36:48.857Z,39.83
2022-12-01T20:39:16.546Z,40.20
2022-12-01T20:41:45.002Z,45.72
2022-12-01T20:44:13.684Z,43.85
2022-12-01T20:46:41.766Z,28.90
2022-12-01T20:49:09.885Z,22.00
2022-12-01T20:51:37.726Z,21.80
2022-12-01T20:54:28.438Z,22.58
2022-12-01T20:56:57.449Z,23.02
2022-12-01T20:59:25.487Z,22.15
2022-12-01T21:01:53.157Z,21.48
2022-12-01T21:04:20.695Z,21.52
2022-12-01T21:06:49.996Z,22.58
2022-12-01T21:09:18.392Z,21.70
2022-12-01T21:12:06.907Z,21.45
2022-12-01T21:15:08.605Z,18.35
2022-12-01T21:17:40.224Z,19.85
2022-12-01T21:20:21.834Z,20.23
2022-12-01T21:22:50.403Z,21.05
2022-12-01T21:25:20.813Z,22.05
2022-12-01T21:27:49.355Z,23.20
2022-12-01T21:30:18.149Z,24.05
2022-12-01T21:32:46.656Z,32.40
2022-12-01T21:35:20.242Z,35.42
2022-12-01T21:37:48.692Z,33.30
2022-12-01T21:40:19.236Z,30.10
2022-12-01T21:42:46.993Z,37.90
2022-12-01T21:45:27.696Z,40.55
2022-12-01T21:48:15.282Z,36.55
2022-12-01T21:50:43.232Z,39.47
2022-12-01T21:53:13.506Z,40.25
2022-12-01T21:55:43.310Z,29.95
2022-12-01T21:58:24.589Z,28.80
2022-12-01T22:00:52.976Z,26.27
2022-12-01T22:03:32.569Z,22.00
2022-12-01T22:08:55.164Z,20.30
2022-12-01T22:11:27.250Z,19.73
2022-12-01T22:14:15.506Z,22.45
2022-12-01T22:16:48.493Z,20.05
2022-12-01T22:19:32.218Z,21.20
2022-12-01T22:22:03.953Z,20.25
2022-12-01T22:24:37.969Z,19.92
2022-12-01T22:27:07.874Z,18.30
2022-12-01T22:29:46.751Z,18.52
2022-12-01T22:32:13.915Z,14.77
2022-12-01T22:34:56.940Z,17.00
2022-12-01T22:37:37.677Z,19.95
2022-12-01T22:40:40.341Z,21.85
2022-12-01T22:43:29.306Z,20.73
2022-12-01T22:45:59.846Z,17.98
2022-12-01T22:48:27.162Z,26.30
2022-12-01T22:50:55.165Z,25.40
2022-12-01T22:53:30.993Z,19.83
2022-12-01T22:56:00.848Z,16.52
2022-12-01T22:58:32.475Z,18.62
2022-12-01T23:01:10.222Z,19.65
2022-12-01T23:03:38.043Z,26.00
2022-12-01T23:06:43.868Z,26.35
2022-12-01T23:09:13.660Z,25.08
2022-12-01T23:11:44.880Z,20.08
2022-12-01T23:14:16.977Z,21.87
2022-12-01T23:16:44.268Z,21.37
2022-12-01T23:19:11.906Z,17.75
2022-12-01T23:21:39.290Z,16.17
2022-12-01T23:24:07.151Z,14.77
2022-12-01T23:26:34.766Z,14.13
2022-12-01T23:29:02.063Z,14.05
2022-12-01T23:31:29.627Z,14.10
2022-12-01T23:33:57.311Z,12.20
2022-12-01T23:36:26.703Z,13.05
2022-12-01T23:38:58.707Z,13.40
2022-12-01T23:41:41.906Z,12.63
2022-12-01T23:44:40.208Z,12.52
2022-12-01T23:47:20.294Z,12.65
2022-12-01T23:49:48.278Z,13.40
2022-12-01T23:52:19.729Z,12.95
2022-12-01T23:54:47.194Z,11.70
2022-12-01T23:57:22.282Z,12.60
2022-12-01T23:59:53.686Z,11.65
